createdAt,value
2018-01-19T00:00:20.587Z,3.20
2018-01-19T00:02:48.936Z,3.10
2018-01-19T00:05:17.298Z,3.00
2018-01-19T00:07:45.634Z,3.50
2018-01-19T00:10:13.970Z,4.63
2018-01-19T00:12:42.670Z,3.30
2018-01-19T00:15:10.996Z,4.23
2018-01-19T00:17:40.096Z,4.10
2018-01-19T00:20:09.204Z,4.13
2018-01-19T00:22:43.517Z,4.80
2018-01-19T00:25:12.602Z,4.60
2018-01-19T00:27:41.725Z,4.73
2018-01-19T00:30:10.084Z,4.43
2018-01-19T00:32:39.186Z,5.13
2018-01-19T00:35:08.397Z,5.50
2018-01-19T00:37:36.740Z,5.17
2018-01-19T00:40:05.176Z,5.77
2018-01-19T00:42:33.518Z,5.47
2018-01-19T00:45:02.620Z,6.20
2018-01-19T00:47:31.758Z,6.27
2018-01-19T00:50:00.103Z,6.33
2018-01-19T00:52:29.197Z,6.40
2018-01-19T00:54:58.308Z,6.57
2018-01-19T00:57:26.682Z,6.57
2018-01-19T00:59:55.035Z,6.60
2018-01-19T01:02:23.470Z,7.47
2018-01-19T01:04:51.823Z,7.63
2018-01-19T01:07:20.209Z,7.40
2018-01-19T01:09:48.539Z,7.73
2018-01-19T01:12:16.903Z,7.63
2018-01-19T01:14:45.226Z,7.87
2018-01-19T01:17:13.561Z,8.80
2018-01-19T01:19:41.886Z,7.37
2018-01-19T01:22:10.271Z,7.60
2018-01-19T01:24:38.627Z,8.73
2018-01-19T01:27:07.804Z,8.33
2018-01-19T01:29:36.238Z,7.77
2018-01-19T01:32:04.594Z,7.60
2018-01-19T01:34:32.968Z,6.87
2018-01-19T01:37:02.131Z,7.40
2018-01-19T01:39:30.474Z,7.40
2018-01-19T01:41:58.816Z,7.17
2018-01-19T01:44:27.219Z,6.73
2018-01-19T01:46:55.572Z,6.90
2018-01-19T01:49:24.675Z,7.20
2018-01-19T01:51:53.914Z,6.90
2018-01-19T01:54:22.285Z,7.50
2018-01-19T01:56:50.602Z,6.70
2018-01-19T01:59:18.927Z,7.23
2018-01-19T02:01:47.258Z,6.57
2018-01-19T02:04:15.698Z,6.67
2018-01-19T02:06:44.146Z,6.87
2018-01-19T02:09:13.258Z,7.23
2018-01-19T02:11:41.595Z,6.30
2018-01-19T02:14:09.931Z,6.43
2018-01-19T02:16:38.267Z,7.60
2018-01-19T02:19:06.735Z,5.93
2018-01-19T02:21:35.059Z,6.57
2018-01-19T02:24:03.399Z,6.30
2018-01-19T02:26:32.037Z,6.87
2018-01-19T02:29:00.354Z,5.63
2018-01-19T02:31:28.690Z,5.73
2018-01-19T02:33:57.154Z,6.50
2018-01-19T02:36:25.482Z,5.40
2018-01-19T02:38:53.818Z,5.90
2018-01-19T02:41:22.168Z,5.33
2018-01-19T02:43:50.489Z,5.47
2018-01-19T02:46:18.828Z,5.53
2018-01-19T02:48:47.948Z,5.60
2018-01-19T02:51:16.281Z,5.40
2018-01-19T02:53:44.702Z,6.00
2018-01-19T02:56:13.048Z,5.97
2018-01-19T02:58:41.476Z,6.70
2018-01-19T03:01:09.858Z,6.77
2018-01-19T03:03:38.357Z,6.23
2018-01-19T03:06:06.698Z,7.53
2018-01-19T03:08:35.037Z,7.53
2018-01-19T03:11:03.692Z,8.03
2018-01-19T03:13:32.039Z,7.70
2018-01-19T03:16:01.383Z,8.07
2018-01-19T03:18:29.730Z,8.07
2018-01-19T03:20:58.061Z,8.13
2018-01-19T03:23:26.387Z,8.50
2018-01-19T03:25:54.972Z,8.43
2018-01-19T03:28:23.313Z,10.50
2018-01-19T03:30:51.722Z,9.87
2018-01-19T03:33:20.108Z,9.90
2018-01-19T03:35:48.457Z,10.57
2018-01-19T03:38:17.563Z,10.33
2018-01-19T03:40:46.654Z,10.30
2018-01-19T03:43:15.856Z,11.33
2018-01-19T03:45:44.945Z,10.73
2018-01-19T03:48:14.073Z,11.70
2018-01-19T03:50:42.469Z,11.07
2018-01-19T03:53:10.922Z,11.47
2018-01-19T03:55:39.264Z,11.17
2018-01-19T03:58:07.703Z,12.73
2018-01-19T04:00:36.046Z,11.93
2018-01-19T04:03:04.383Z,12.17
2018-01-19T04:05:32.995Z,11.17
2018-01-19T04:08:01.326Z,11.60
2018-01-19T04:10:30.607Z,12.17
2018-01-19T04:12:58.942Z,11.13
2018-01-19T04:15:27.275Z,11.10
2018-01-19T04:17:55.622Z,11.43
2018-01-19T04:20:24.752Z,11.67
2018-01-19T04:22:53.113Z,11.87
2018-01-19T04:25:21.443Z,11.63
2018-01-19T04:27:49.826Z,11.47
2018-01-19T04:30:18.168Z,11.23
2018-01-19T04:32:46.498Z,11.60
2018-01-19T04:35:14.917Z,11.27
2018-01-19T04:37:43.297Z,12.47
2018-01-19T04:40:11.642Z,11.87
2018-01-19T04:42:40.791Z,11.80
2018-01-19T04:45:09.182Z,12.60
2018-01-19T04:47:37.503Z,12.07
2018-01-19T04:50:06.926Z,11.33
2018-01-19T04:52:35.262Z,12.40
2018-01-19T04:55:03.691Z,11.17
2018-01-19T04:57:32.053Z,11.77
2018-01-19T05:00:00.398Z,10.83
2018-01-19T05:02:28.823Z,11.20
2018-01-19T05:04:57.156Z,12.07
2018-01-19T05:07:25.486Z,12.40
2018-01-19T05:09:53.846Z,13.10
2018-01-19T05:12:22.944Z,12.50
2018-01-19T05:14:51.348Z,11.77
2018-01-19T05:17:19.670Z,11.83
2018-01-19T05:19:48.113Z,12.73
2018-01-19T05:22:16.439Z,13.20
2018-01-19T05:24:44.952Z,13.03
2018-01-19T05:27:13.287Z,13.03
2018-01-19T05:29:41.619Z,14.43
2018-01-19T05:32:10.013Z,13.73
2018-01-19T05:34:38.403Z,13.40
2018-01-19T05:37:06.782Z,14.60
2018-01-19T05:39:35.136Z,15.63
2018-01-19T05:42:03.520Z,15.40
2018-01-19T05:44:31.864Z,15.13
2018-01-19T05:47:00.959Z,15.43
2018-01-19T05:49:29.362Z,15.67
2018-01-19T05:51:57.701Z,15.13
2018-01-19T05:54:26.069Z,14.60
2018-01-19T05:56:54.485Z,13.13
2018-01-19T05:59:23.686Z,15.23
2018-01-19T06:01:52.091Z,15.33
2018-01-19T06:04:20.435Z,16.07
2018-01-19T06:06:49.551Z,15.60
2018-01-19T06:09:17.882Z,16.53
2018-01-19T06:11:46.236Z,18.67
2018-01-19T06:14:14.572Z,18.90
2018-01-19T06:16:43.684Z,18.03
2018-01-19T06:19:12.063Z,17.57
2018-01-19T06:21:40.450Z,17.20
2018-01-19T06:24:08.804Z,17.30
2018-01-19T06:26:37.899Z,16.93
2018-01-19T06:29:07.026Z,16.53
2018-01-19T06:31:35.376Z,15.93
2018-01-19T06:34:04.475Z,17.33
2018-01-19T06:36:33.624Z,16.20
2018-01-19T06:39:01.957Z,16.63
2018-01-19T06:41:30.346Z,15.60
2018-01-19T06:43:58.688Z,15.57
2018-01-19T06:46:27.095Z,14.73
2018-01-19T06:48:55.426Z,14.83
2018-01-19T06:51:23.772Z,16.27
2018-01-19T06:53:52.152Z,15.37
2018-01-19T06:56:20.507Z,14.87
2018-01-19T06:58:49.609Z,15.40
2018-01-19T07:01:17.946Z,14.47
2018-01-19T07:03:46.351Z,15.50
2018-01-19T07:06:15.575Z,16.13
2018-01-19T07:08:43.907Z,15.93
2018-01-19T07:11:12.242Z,15.20
2018-01-19T07:13:40.577Z,16.50
2018-01-19T07:16:09.683Z,15.80
2018-01-19T07:18:38.814Z,17.20
2018-01-19T07:21:07.166Z,16.20
2018-01-19T07:23:35.506Z,15.73
2018-01-19T07:26:03.903Z,17.67
2018-01-19T07:28:32.251Z,18.10
2018-01-19T07:31:00.584Z,19.40
2018-01-19T07:33:28.928Z,17.47
2018-01-19T07:35:58.174Z,20.03
2018-01-19T07:38:26.563Z,18.67
2018-01-19T07:40:54.900Z,18.73
2018-01-19T07:43:24.125Z,17.87
2018-01-19T07:45:53.304Z,18.90
2018-01-19T07:48:22.441Z,20.10
2018-01-19T07:50:50.793Z,18.83
2018-01-19T07:53:19.284Z,20.77
2018-01-19T07:55:47.614Z,20.27
2018-01-19T07:58:15.959Z,21.10
2018-01-19T08:00:44.300Z,21.37
2018-01-19T08:03:17.012Z,22.10
2018-01-19T08:05:45.393Z,23.20
2018-01-19T08:08:13.761Z,23.00
2018-01-19T08:10:42.089Z,24.40
2018-01-19T08:13:10.418Z,23.57
2018-01-19T08:15:38.758Z,24.10
2018-01-19T08:18:07.900Z,28.27
2018-01-19T08:20:36.935Z,27.37
2018-01-19T08:23:05.364Z,26.30
2018-01-19T08:25:33.735Z,28.90
2018-01-19T08:28:02.927Z,27.67
2018-01-19T08:30:32.160Z,28.47
2018-01-19T08:33:00.507Z,28.37
2018-01-19T08:35:29.608Z,29.37
2018-01-19T08:37:58.010Z,40.87
2018-01-19T08:40:27.073Z,28.63
2018-01-19T08:42:56.337Z,28.47
2018-01-19T08:45:24.785Z,28.57
2018-01-19T08:47:53.107Z,26.20
2018-01-19T08:50:21.458Z,27.77
2018-01-19T08:52:49.798Z,27.73
2018-01-19T08:55:18.148Z,28.40
2018-01-19T08:57:46.571Z,28.57
2018-01-19T09:00:14.998Z,27.50
2018-01-19T09:02:43.341Z,28.20
2018-01-19T09:05:11.663Z,28.13
2018-01-19T09:07:40.004Z,28.03
2018-01-19T09:10:08.319Z,27.73
2018-01-19T09:12:36.675Z,27.50
2018-01-19T09:15:05.021Z,27.57
2018-01-19T09:17:33.410Z,27.77
2018-01-19T09:20:01.752Z,27.10
2018-01-19T09:22:30.836Z,27.47
2018-01-19T09:24:59.957Z,28.60
2018-01-19T09:27:28.304Z,30.07
2018-01-19T09:29:56.656Z,27.63
2018-01-19T09:32:25.509Z,27.87
2018-01-19T09:34:53.880Z,27.30
2018-01-19T09:37:22.223Z,25.63
2018-01-19T09:39:50.649Z,26.20
2018-01-19T09:42:19.049Z,26.43
2018-01-19T09:44:47.399Z,26.20
2018-01-19T09:47:16.520Z,26.20
2018-01-19T09:49:44.839Z,26.17
2018-01-19T09:52:13.266Z,27.80
2018-01-19T09:54:41.619Z,27.10
2018-01-19T09:57:10.165Z,26.73
2018-01-19T09:59:38.499Z,27.50
2018-01-19T10:02:06.830Z,27.90
2018-01-19T10:04:35.214Z,28.73
2018-01-19T10:07:03.642Z,27.73
2018-01-19T10:09:32.007Z,27.60
2018-01-19T10:12:01.282Z,26.53
2018-01-19T10:14:29.604Z,27.47
2018-01-19T10:16:57.996Z,27.87
2018-01-19T10:19:26.340Z,28.43
2018-01-19T10:21:54.750Z,27.80
2018-01-19T10:24:23.100Z,25.73
2018-01-19T10:26:52.291Z,25.47
2018-01-19T10:29:21.395Z,26.50
2018-01-19T10:31:50.486Z,25.63
2018-01-19T10:34:19.624Z,24.53
2018-01-19T10:36:47.984Z,23.83
2018-01-19T10:39:16.328Z,26.23
2018-01-19T10:41:44.680Z,28.57
2018-01-19T10:44:13.044Z,26.90
2018-01-19T10:46:41.386Z,28.90
2018-01-19T10:49:10.475Z,24.73
2018-01-19T10:51:39.595Z,26.70
2018-01-19T10:54:07.974Z,24.27
2018-01-19T10:56:36.329Z,23.27
2018-01-19T10:59:05.427Z,23.67
2018-01-19T11:01:34.661Z,23.43
2018-01-19T11:04:03.011Z,23.13
2018-01-19T11:06:32.104Z,22.23
2018-01-19T11:09:01.824Z,22.93
2018-01-19T11:11:30.910Z,21.10
2018-01-19T11:13:59.265Z,22.50
2018-01-19T11:16:27.600Z,20.97
2018-01-19T11:18:55.976Z,20.10
2018-01-19T11:21:24.446Z,20.50
2018-01-19T11:23:52.786Z,17.30
2018-01-19T11:26:21.140Z,20.07
2018-01-19T11:28:49.611Z,19.13
2018-01-19T11:31:17.975Z,18.50
2018-01-19T11:33:46.298Z,19.87
2018-01-19T11:36:14.654Z,20.37
2018-01-19T11:38:43.054Z,20.90
2018-01-19T11:41:11.511Z,20.43
2018-01-19T11:43:40.036Z,21.57
2018-01-19T11:46:08.404Z,20.03
2018-01-19T11:48:36.752Z,20.17
2018-01-19T11:51:05.089Z,20.27
2018-01-19T11:53:33.451Z,19.57
2018-01-19T11:56:02.565Z,19.77
2018-01-19T11:58:31.694Z,18.43
2018-01-19T12:01:00.039Z,17.30
2018-01-19T12:03:29.135Z,15.23
2018-01-19T12:05:57.506Z,15.73
2018-01-19T12:08:26.594Z,12.83
2018-01-19T12:10:55.726Z,13.27
2018-01-19T12:13:24.074Z,10.43
2018-01-19T12:15:53.183Z,11.00
2018-01-19T12:18:22.301Z,10.83
2018-01-19T12:20:50.630Z,10.80
2018-01-19T12:23:18.992Z,10.53
2018-01-19T12:25:47.323Z,10.87
2018-01-19T12:28:15.684Z,11.30
2018-01-19T12:30:44.015Z,10.63
2018-01-19T12:33:12.351Z,8.63
2018-01-19T12:35:40.750Z,10.10
2018-01-19T12:38:09.231Z,9.67
2018-01-19T12:40:37.601Z,9.40
2018-01-19T12:43:05.942Z,9.80
2018-01-19T12:45:34.326Z,10.60
2018-01-19T12:48:02.658Z,11.50
2018-01-19T12:50:30.991Z,11.70
2018-01-19T12:53:00.111Z,10.67
2018-01-19T12:55:28.448Z,11.97
2018-01-19T12:57:56.792Z,11.77
2018-01-19T13:00:25.143Z,11.87
2018-01-19T13:02:53.497Z,13.23
2018-01-19T13:05:22.634Z,12.73
2018-01-19T13:07:51.034Z,12.53
2018-01-19T13:10:19.495Z,12.17
2018-01-19T13:12:47.875Z,11.53
2018-01-19T13:15:16.238Z,11.87
2018-01-19T13:17:44.635Z,12.00
2018-01-19T13:20:12.980Z,11.73
2018-01-19T13:22:41.337Z,11.87
2018-01-19T13:25:09.763Z,11.83
2018-01-19T13:27:38.118Z,11.37
2018-01-19T13:30:06.466Z,11.97
2018-01-19T13:32:34.808Z,12.03
2018-01-19T13:35:03.155Z,11.63
2018-01-19T13:37:32.372Z,11.53
2018-01-19T13:40:00.753Z,12.23
2018-01-19T13:42:29.091Z,10.83
2018-01-19T13:44:57.431Z,11.67
2018-01-19T13:47:25.772Z,11.47
2018-01-19T13:49:54.892Z,11.13
2018-01-19T13:52:23.262Z,11.67
2018-01-19T13:54:51.595Z,11.07
2018-01-19T13:57:19.992Z,13.43
2018-01-19T13:59:49.168Z,12.17
2018-01-19T14:02:17.517Z,12.00
2018-01-19T14:04:45.853Z,12.40
2018-01-19T14:07:15.382Z,11.80
2018-01-19T14:09:43.727Z,13.30
2018-01-19T14:12:12.055Z,12.47
2018-01-19T14:14:40.420Z,12.63
2018-01-19T14:17:08.751Z,14.13
2018-01-19T14:19:37.088Z,14.07
2018-01-19T14:22:05.471Z,12.90
2018-01-19T14:24:33.841Z,13.60
2018-01-19T14:27:02.184Z,14.63
2018-01-19T14:29:31.347Z,14.50
2018-01-19T14:31:59.712Z,14.33
2018-01-19T14:34:28.038Z,13.80
2018-01-19T14:36:57.154Z,13.97
2018-01-19T14:39:25.487Z,13.13
2018-01-19T14:41:53.871Z,13.33
2018-01-19T14:44:22.313Z,13.20
2018-01-19T14:46:50.663Z,13.77
2018-01-19T14:49:19.100Z,12.63
2018-01-19T14:51:47.431Z,13.63
2018-01-19T14:54:15.829Z,12.53
2018-01-19T14:56:44.162Z,12.53
2018-01-19T14:59:12.531Z,11.13
2018-01-19T15:01:40.964Z,11.67
2018-01-19T15:04:09.492Z,10.30
2018-01-19T15:06:37.831Z,11.00
2018-01-19T15:09:06.173Z,11.43
2018-01-19T15:11:35.279Z,9.93
2018-01-19T15:14:03.666Z,10.87
2018-01-19T15:16:32.048Z,11.10
2018-01-19T15:19:00.410Z,11.73
2018-01-19T15:21:29.514Z,10.73
2018-01-19T15:23:58.735Z,10.40
2018-01-19T15:26:27.077Z,10.10
2018-01-19T15:28:56.167Z,9.90
2018-01-19T15:31:24.578Z,9.37
2018-01-19T15:33:53.071Z,10.07
2018-01-19T15:36:21.406Z,11.73
2018-01-19T15:38:49.814Z,10.17
2018-01-19T15:41:18.156Z,9.57
2018-01-19T15:43:46.487Z,10.43
2018-01-19T15:46:14.875Z,10.57
2018-01-19T15:48:43.249Z,10.77
2018-01-19T15:51:11.632Z,10.77
2018-01-19T15:53:40.003Z,10.40
2018-01-19T15:56:08.383Z,11.70
2018-01-19T15:58:36.749Z,12.80
2018-01-19T16:01:05.078Z,11.60
2018-01-19T16:03:33.419Z,11.50
2018-01-19T16:06:01.754Z,11.73
2018-01-19T16:08:30.166Z,10.93
2018-01-19T16:10:58.503Z,11.40
2018-01-19T16:13:26.852Z,12.40
2018-01-19T16:15:55.190Z,11.57
2018-01-19T16:18:23.548Z,12.63
2018-01-19T16:20:51.954Z,12.30
2018-01-19T16:23:20.283Z,12.00
2018-01-19T16:25:48.743Z,11.90
2018-01-19T16:28:17.077Z,11.33
2018-01-19T16:30:46.184Z,12.37
2018-01-19T16:33:14.524Z,12.40
2018-01-19T16:35:42.866Z,12.70
2018-01-19T16:38:11.377Z,12.33
2018-01-19T16:40:39.704Z,12.67
2018-01-19T16:43:08.072Z,13.13
2018-01-19T16:45:37.208Z,13.47
2018-01-19T16:48:05.562Z,13.27
2018-01-19T16:50:33.926Z,13.77
2018-01-19T16:53:03.064Z,13.20
2018-01-19T16:55:31.432Z,13.03
2018-01-19T16:57:59.814Z,14.77
2018-01-19T17:00:28.193Z,13.90
2018-01-19T17:02:56.561Z,14.23
2018-01-19T17:05:25.653Z,14.27
2018-01-19T17:07:54.027Z,14.23
2018-01-19T17:10:23.127Z,14.60
2018-01-19T17:12:51.484Z,13.20
2018-01-19T17:15:20.597Z,13.63
2018-01-19T17:17:49.717Z,14.17
2018-01-19T17:20:18.066Z,13.10
2018-01-19T17:22:47.223Z,13.30
2018-01-19T17:25:15.550Z,13.37
2018-01-19T17:27:43.884Z,13.77
2018-01-19T17:30:13.760Z,13.03
2018-01-19T17:32:42.098Z,12.97
2018-01-19T17:35:11.222Z,12.67
2018-01-19T17:37:39.563Z,13.67
2018-01-19T17:40:07.935Z,11.23
2018-01-19T17:42:36.380Z,11.40
2018-01-19T17:45:04.723Z,12.63
2018-01-19T17:47:33.865Z,13.37
2018-01-19T17:50:02.196Z,11.57
2018-01-19T17:52:31.393Z,11.97
2018-01-19T17:55:00.500Z,12.60
2018-01-19T17:57:30.356Z,13.50
2018-01-19T17:59:58.716Z,14.33
2018-01-19T18:02:27.067Z,12.67
2018-01-19T18:04:55.416Z,13.93
2018-01-19T18:07:23.735Z,14.17
2018-01-19T18:09:52.101Z,14.63
2018-01-19T18:12:21.211Z,13.70
2018-01-19T18:14:49.619Z,14.00
2018-01-19T18:17:17.990Z,13.57
2018-01-19T18:19:46.773Z,14.27
2018-01-19T18:22:15.137Z,14.17
2018-01-19T18:24:43.554Z,15.13
2018-01-19T18:27:11.962Z,14.57
2018-01-19T18:29:40.349Z,15.97
2018-01-19T18:32:08.681Z,15.60
2018-01-19T18:34:37.021Z,15.30
2018-01-19T18:37:06.118Z,16.10
2018-01-19T18:39:35.238Z,16.20
2018-01-19T18:42:03.568Z,16.23
2018-01-19T18:44:32.011Z,17.33
2018-01-19T18:47:00.384Z,17.47
2018-01-19T18:49:29.315Z,17.70
2018-01-19T18:51:57.666Z,17.37
2018-01-19T18:54:26.000Z,18.73
2018-01-19T18:56:55.126Z,18.83
2018-01-19T18:59:23.477Z,19.40
2018-01-19T19:01:52.895Z,19.83
2018-01-19T19:04:21.256Z,18.37
2018-01-19T19:06:50.355Z,18.37
2018-01-19T19:09:19.479Z,17.90
2018-01-19T19:11:47.814Z,20.80
2018-01-19T19:14:16.226Z,20.17
2018-01-19T19:16:44.720Z,20.50
2018-01-19T19:19:13.100Z,19.97
2018-01-19T19:21:41.427Z,15.63
2018-01-19T19:24:09.772Z,15.67
2018-01-19T19:26:38.932Z,18.27
2018-01-19T19:29:07.285Z,17.20
2018-01-19T19:31:35.741Z,16.47
2018-01-19T19:34:04.091Z,15.57
2018-01-19T19:36:32.446Z,14.50
2018-01-19T19:39:01.572Z,14.37
2018-01-19T19:41:29.946Z,10.90
2018-01-19T19:43:58.284Z,9.47
2018-01-19T19:46:26.660Z,9.97
2018-01-19T19:48:55.001Z,8.40
2018-01-19T19:51:23.341Z,10.90
2018-01-19T19:53:51.690Z,10.73
2018-01-19T19:56:20.168Z,11.13
2018-01-19T19:58:48.541Z,11.50
2018-01-19T20:01:17.172Z,11.97
2018-01-19T20:03:46.351Z,11.93
2018-01-19T20:06:15.534Z,11.63
2018-01-19T20:08:43.872Z,11.40
2018-01-19T20:11:12.248Z,10.27
2018-01-19T20:13:40.569Z,8.37
2018-01-19T20:16:08.920Z,8.37
2018-01-19T20:18:37.940Z,7.20
2018-01-19T20:21:06.236Z,6.87
2018-01-19T20:23:35.376Z,5.13
2018-01-19T20:26:03.696Z,5.53
2018-01-19T20:28:32.039Z,6.10
2018-01-19T20:31:00.367Z,5.73
2018-01-19T20:33:29.803Z,5.80
2018-01-19T20:35:58.134Z,5.67
2018-01-19T20:38:26.496Z,6.83
2018-01-19T20:40:54.837Z,6.73
2018-01-19T20:43:23.278Z,7.00
2018-01-19T20:45:51.635Z,8.13
2018-01-19T20:48:19.964Z,8.10
2018-01-19T20:50:48.307Z,7.37
2018-01-19T20:53:16.666Z,7.57
2018-01-19T20:55:44.987Z,8.33
2018-01-19T20:58:13.339Z,8.83
2018-01-19T21:00:41.793Z,9.67
2018-01-19T21:03:10.149Z,10.93
2018-01-19T21:05:38.475Z,11.13
2018-01-19T21:08:06.832Z,10.77
2018-01-19T21:10:35.162Z,10.70
2018-01-19T21:13:04.250Z,10.07
2018-01-19T21:15:33.396Z,9.57
2018-01-19T21:18:01.731Z,10.03
2018-01-19T21:20:30.066Z,10.10
2018-01-19T21:22:58.410Z,10.67
2018-01-19T21:25:26.761Z,10.53
2018-01-19T21:27:55.874Z,10.17
2018-01-19T21:30:24.208Z,9.80
2018-01-19T21:32:52.573Z,10.87
2018-01-19T21:35:20.929Z,10.73
2018-01-19T21:37:49.270Z,10.27
2018-01-19T21:40:17.688Z,11.00
2018-01-19T21:42:46.072Z,12.03
2018-01-19T21:45:14.421Z,11.90
2018-01-19T21:47:42.764Z,11.90
2018-01-19T21:50:11.123Z,12.03
2018-01-19T21:52:39.481Z,13.03
2018-01-19T21:55:07.846Z,14.40
2018-01-19T21:57:36.236Z,15.30
2018-01-19T22:00:04.664Z,15.67
2018-01-19T22:02:33.097Z,14.67
2018-01-19T22:05:01.475Z,14.80
2018-01-19T22:07:29.860Z,16.10
2018-01-19T22:09:58.822Z,16.90
2018-01-19T22:12:27.178Z,17.90
2018-01-19T22:14:55.537Z,18.37
2018-01-19T22:17:23.885Z,18.47
2018-01-19T22:19:52.269Z,18.07
2018-01-19T22:22:20.641Z,18.40
2018-01-19T22:24:49.010Z,18.87
2018-01-19T22:27:17.360Z,18.77
2018-01-19T22:29:46.513Z,18.03
2018-01-19T22:32:14.851Z,18.50
2018-01-19T22:34:43.196Z,18.97
2018-01-19T22:37:11.546Z,17.57
2018-01-19T22:39:39.871Z,18.30
2018-01-19T22:42:09.019Z,18.07
2018-01-19T22:44:37.332Z,18.60
2018-01-19T22:47:05.763Z,17.07
2018-01-19T22:49:34.063Z,16.90
2018-01-19T22:52:02.394Z,16.67
2018-01-19T22:54:31.503Z,17.00
2018-01-19T22:56:59.843Z,17.53
2018-01-19T22:59:28.200Z,16.97
2018-01-19T23:01:56.541Z,17.27
2018-01-19T23:04:24.880Z,16.67
2018-01-19T23:06:53.346Z,18.10
2018-01-19T23:09:21.674Z,16.83
2018-01-19T23:11:50.044Z,16.30
2018-01-19T23:14:18.530Z,15.67
2018-01-19T23:16:48.010Z,17.43
2018-01-19T23:19:16.422Z,17.57
2018-01-19T23:21:44.749Z,17.10
2018-01-19T23:24:13.169Z,16.60
2018-01-19T23:26:41.503Z,18.23
2018-01-19T23:29:09.851Z,17.37
2018-01-19T23:31:38.184Z,18.37
2018-01-19T23:34:06.549Z,18.17
2018-01-19T23:36:34.979Z,19.17
2018-01-19T23:39:03.311Z,18.93
2018-01-19T23:41:31.658Z,18.20
2018-01-19T23:43:59.986Z,19.03
2018-01-19T23:46:29.104Z,18.33
2018-01-19T23:48:57.501Z,18.93
2018-01-19T23:51:25.859Z,20.17
2018-01-19T23:53:54.220Z,18.63
2018-01-19T23:56:22.556Z,19.10
2018-01-19T23:58:50.891Z,18.53
